createdAt,value
2022-12-08T00:00:48.933Z,99098.73
2022-12-08T00:03:52.883Z,99092.48
2022-12-08T00:07:15.100Z,99092.30
2022-12-08T00:10:47.825Z,99085.84
2022-12-08T00:13:44.516Z,99082.00
2022-12-08T00:16:47.749Z,99080.35
2022-12-08T00:19:53.302Z,99081.09
2022-12-08T00:23:14.876Z,99082.15
2022-12-08T00:26:17.874Z,99081.92
2022-12-08T00:33:59.973Z,99088.52
2022-12-08T00:42:10.275Z,99079.48
2022-12-08T00:45:13.189Z,99078.56
2022-12-08T00:48:16.068Z,99070.67
2022-12-08T00:51:44.658Z,99074.02
2022-12-08T00:54:49.603Z,99076.25
2022-12-08T00:57:52.354Z,99075.52
2022-12-08T01:00:55.324Z,99074.61
2022-12-08T01:03:58.476Z,99081.05
2022-12-08T01:07:02.774Z,99085.61
2022-12-08T01:10:07.310Z,99086.14
2022-12-08T01:13:11.545Z,99090.21
2022-12-08T01:16:26.612Z,99090.05
2022-12-08T01:19:30.990Z,99095.38
2022-12-08T01:22:35.525Z,99098.05
2022-12-08T01:25:38.418Z,99097.15
2022-12-08T01:28:43.937Z,99096.86
2022-12-08T01:31:47.087Z,99094.48
2022-12-08T01:34:52.035Z,99096.73
2022-12-08T01:37:54.888Z,99091.31
2022-12-08T01:40:57.869Z,99086.14
2022-12-08T01:44:24.805Z,99087.20
2022-12-08T01:47:36.545Z,99086.68
2022-12-08T01:50:42.330Z,99089.89
2022-12-08T01:53:49.014Z,99086.00
2022-12-08T01:56:59.304Z,99088.31
2022-12-08T02:00:09.606Z,99088.34
2022-12-08T02:03:18.804Z,99082.38
2022-12-08T02:06:23.160Z,99079.77
2022-12-08T02:14:13.474Z,99071.20
2022-12-08T02:17:49.879Z,99073.17
2022-12-08T02:20:52.793Z,99067.30
2022-12-08T02:24:28.349Z,99064.32
2022-12-08T02:28:06.139Z,99066.27
2022-12-08T02:31:21.408Z,99066.23
2022-12-08T02:35:00.243Z,99066.55
2022-12-08T02:38:27.784Z,99058.27
2022-12-08T02:41:40.339Z,99064.37
2022-12-08T02:44:59.520Z,99060.23
2022-12-08T02:48:02.649Z,99056.25
2022-12-08T02:51:05.864Z,99057.80
2022-12-08T02:54:34.158Z,99050.59
2022-12-08T02:57:49.605Z,99054.52
2022-12-08T03:01:11.234Z,99055.23
2022-12-08T03:05:08.260Z,99054.45
2022-12-08T03:08:25.892Z,99051.98
2022-12-08T03:12:10.181Z,99040.85
2022-12-08T03:15:19.633Z,99043.77
2022-12-08T03:18:32.347Z,99039.48
2022-12-08T03:21:38.615Z,99032.93
2022-12-08T03:24:45.329Z,99031.67
2022-12-08T03:27:49.162Z,99030.33
2022-12-08T03:30:56.334Z,99031.95
2022-12-08T03:38:42.341Z,99019.82
2022-12-08T03:42:30.783Z,99017.90
2022-12-08T03:45:33.808Z,99013.02
2022-12-08T03:48:41.136Z,99018.69
2022-12-08T03:51:44.135Z,99018.84
2022-12-08T03:54:47.368Z,99011.45
2022-12-08T03:57:51.449Z,99001.27
2022-12-08T04:05:43.745Z,98997.35
2022-12-08T04:08:47.409Z,98998.09
2022-12-08T04:19:46.990Z,98977.36
2022-12-08T04:22:49.835Z,98975.00
2022-12-08T04:25:55.926Z,98974.06
2022-12-08T04:28:58.810Z,98970.61
2022-12-08T04:32:02.793Z,98964.46
2022-12-08T04:35:05.937Z,98961.54
2022-12-08T04:38:08.825Z,98959.38
2022-12-08T04:41:11.583Z,98956.98
2022-12-08T04:44:14.380Z,98949.86
2022-12-08T04:47:17.328Z,98951.15
2022-12-08T04:50:20.220Z,98947.31
2022-12-08T04:53:23.163Z,98943.22
2022-12-08T04:56:25.940Z,98945.17
2022-12-08T04:59:32.495Z,98945.35
2022-12-08T05:02:36.148Z,98944.31
2022-12-08T05:05:39.311Z,98941.96
2022-12-08T05:08:43.420Z,98943.85
2022-12-08T05:11:49.050Z,98935.34
2022-12-08T05:14:52.361Z,98938.45
2022-12-08T05:17:55.420Z,98933.67
2022-12-08T05:20:58.539Z,98936.09
2022-12-08T05:24:01.632Z,98933.61
2022-12-08T05:27:04.722Z,98932.56
2022-12-08T05:30:07.899Z,98933.94
2022-12-08T05:33:11.579Z,98939.23
2022-12-08T05:36:38.539Z,98934.02
2022-12-08T05:39:41.472Z,98930.84
2022-12-08T05:42:44.376Z,98922.79
2022-12-08T05:45:47.408Z,98925.75
2022-12-08T05:48:50.533Z,98922.69
2022-12-08T05:51:53.707Z,98919.59
2022-12-08T05:54:56.680Z,98914.42
2022-12-08T05:58:04.566Z,98920.48
2022-12-08T06:01:28.475Z,98917.29
2022-12-08T06:04:31.579Z,98911.91
2022-12-08T06:07:34.544Z,98908.33
2022-12-08T06:10:42.696Z,98903.52
2022-12-08T06:13:45.911Z,98906.20
2022-12-08T06:16:48.926Z,98907.66
2022-12-08T06:20:09.283Z,98910.77
2022-12-08T06:23:12.285Z,98908.77
2022-12-08T06:26:16.321Z,98911.05
2022-12-08T06:29:19.467Z,98912.46
2022-12-08T06:32:27.255Z,98915.34
2022-12-08T06:35:55.935Z,98909.57
2022-12-08T06:38:58.991Z,98913.42
2022-12-08T06:42:20.931Z,98917.80
2022-12-08T06:45:23.790Z,98925.21
2022-12-08T06:48:27.080Z,98931.13
2022-12-08T06:51:29.909Z,98926.20
2022-12-08T06:54:32.777Z,98929.70
2022-12-08T06:57:37.932Z,98935.02
2022-12-08T07:00:41.854Z,98936.85
2022-12-08T07:03:44.873Z,98932.34
2022-12-08T07:06:51.911Z,98939.14
2022-12-08T07:09:54.894Z,98941.05
2022-12-08T07:12:57.675Z,98942.15
2022-12-08T07:16:00.496Z,98940.93
2022-12-08T07:19:03.327Z,98938.14
2022-12-08T07:22:08.975Z,98940.70
2022-12-08T07:25:11.862Z,98937.64
2022-12-08T07:28:14.822Z,98935.46
2022-12-08T07:31:23.532Z,98934.06
2022-12-08T07:34:27.862Z,98938.79
2022-12-08T07:37:30.753Z,98929.88
2022-12-08T07:40:33.704Z,98934.61
2022-12-08T07:43:36.567Z,98935.95
2022-12-08T07:46:39.380Z,98934.64
2022-12-08T07:49:42.444Z,98934.11
2022-12-08T07:52:45.371Z,98938.27
2022-12-08T07:55:48.211Z,98937.71
2022-12-08T07:58:51.147Z,98938.91
2022-12-08T08:02:20.931Z,98932.27
2022-12-08T08:05:16.819Z,98931.02
2022-12-08T08:08:19.925Z,98931.86
2022-12-08T08:11:23.264Z,98931.77
2022-12-08T08:14:26.067Z,98930.20
2022-12-08T08:17:31.703Z,98932.46
2022-12-08T08:20:35.554Z,98935.70
2022-12-08T08:23:41.121Z,98938.20
2022-12-08T08:26:43.948Z,98941.31
2022-12-08T08:29:46.876Z,98944.84
2022-12-08T08:32:50.163Z,98943.09
2022-12-08T08:35:53.324Z,98940.35
2022-12-08T08:38:56.160Z,98935.02
2022-12-08T08:41:59.317Z,98937.64
2022-12-08T08:45:02.365Z,98942.69
2022-12-08T08:48:05.412Z,98945.01
2022-12-08T08:51:11.071Z,98942.32
2022-12-08T08:54:13.970Z,98943.27
2022-12-08T08:57:20.751Z,98947.64
2022-12-08T09:00:28.089Z,98948.39
2022-12-08T09:03:30.925Z,98944.18
2022-12-08T09:06:33.798Z,98946.81
2022-12-08T09:09:36.767Z,98945.77
2022-12-08T09:12:39.559Z,98946.91
2022-12-08T09:15:42.457Z,98944.52
2022-12-08T09:18:45.808Z,98942.76
2022-12-08T09:21:48.681Z,98938.31
2022-12-08T09:24:51.532Z,98937.71
2022-12-08T09:27:54.489Z,98939.36
2022-12-08T09:30:57.391Z,98933.48
2022-12-08T09:34:00.510Z,98931.18
2022-12-08T09:37:03.492Z,98929.27
2022-12-08T09:40:07.978Z,98922.38
2022-12-08T09:43:53.034Z,98924.11
2022-12-08T09:46:59.689Z,98922.85
2022-12-08T09:50:12.111Z,98925.31
2022-12-08T09:53:21.858Z,98926.98
2022-12-08T09:56:31.226Z,98925.17
2022-12-08T09:59:35.629Z,98922.36
2022-12-08T10:02:38.511Z,98924.43
2022-12-08T10:06:03.479Z,98923.21
2022-12-08T10:09:24.464Z,98927.48
2022-12-08T10:12:39.526Z,98927.98
2022-12-08T10:16:07.223Z,98920.51
2022-12-08T10:19:25.491Z,98917.55
2022-12-08T10:22:37.606Z,98912.48
2022-12-08T10:25:52.167Z,98908.44
2022-12-08T10:29:01.327Z,98910.73
2022-12-08T10:32:21.080Z,98905.92
2022-12-08T10:35:26.367Z,98906.20
2022-12-08T10:38:36.035Z,98907.30
2022-12-08T10:41:40.277Z,98904.50
2022-12-08T10:45:04.576Z,98897.50
2022-12-08T10:48:30.743Z,98887.86
2022-12-08T10:51:34.983Z,98884.91
2022-12-08T10:54:42.796Z,98889.95
2022-12-08T10:57:46.206Z,98892.96
2022-12-08T11:00:52.284Z,98891.90
2022-12-08T11:03:59.148Z,98892.85
2022-12-08T11:07:04.704Z,98884.99
2022-12-08T11:10:19.061Z,98890.61
2022-12-08T11:13:27.328Z,98888.52
2022-12-08T11:16:31.005Z,98888.52
2022-12-08T11:19:40.820Z,98884.95
2022-12-08T11:22:46.313Z,98873.82
2022-12-08T11:25:50.644Z,98868.77
2022-12-08T11:28:53.698Z,98865.05
2022-12-08T11:32:03.251Z,98855.70
2022-12-08T11:35:08.451Z,98857.50
2022-12-08T11:38:23.184Z,98856.91
2022-12-08T11:41:39.717Z,98858.32
2022-12-08T11:44:49.968Z,98852.61
2022-12-08T11:48:04.206Z,98850.27
2022-12-08T11:51:22.104Z,98838.80
2022-12-08T11:54:41.104Z,98830.27
2022-12-08T11:57:45.715Z,98827.00
2022-12-08T12:00:50.025Z,98830.05
2022-12-08T12:04:16.068Z,98828.53
2022-12-08T12:07:29.759Z,98828.68
2022-12-08T12:10:50.987Z,98826.24
2022-12-08T12:14:18.122Z,98821.48
2022-12-08T12:17:23.857Z,98823.42
2022-12-08T12:21:21.768Z,98824.17
2022-12-08T12:24:36.213Z,98826.10
2022-12-08T12:27:40.408Z,98823.27
2022-12-08T12:31:03.063Z,98828.12
2022-12-08T12:34:29.291Z,98824.38
2022-12-08T12:37:42.265Z,98823.44
2022-12-08T12:40:45.160Z,98820.18
2022-12-08T12:44:14.223Z,98818.53
2022-12-08T12:48:03.381Z,98819.77
2022-12-08T12:51:38.137Z,98806.73
2022-12-08T12:55:05.160Z,98815.73
2022-12-08T12:58:19.826Z,98811.70
2022-12-08T13:01:22.664Z,98805.44
2022-12-08T13:04:36.097Z,98804.80
2022-12-08T13:07:48.195Z,98804.17
2022-12-08T13:11:04.502Z,98801.95
2022-12-08T13:14:26.612Z,98801.10
2022-12-08T13:17:33.338Z,98795.05
2022-12-08T13:20:47.638Z,98795.23
2022-12-08T13:24:10.629Z,98795.30
2022-12-08T13:27:13.451Z,98799.48
2022-12-08T13:30:46.251Z,98798.73
2022-12-08T13:33:49.320Z,98795.80
2022-12-08T13:37:01.329Z,98795.92
2022-12-08T13:40:30.226Z,98796.69
2022-12-08T13:43:55.644Z,98784.27
2022-12-08T13:47:32.666Z,98784.55
2022-12-08T13:57:32.742Z,98788.22
2022-12-08T14:00:36.046Z,98786.46
2022-12-08T14:04:21.731Z,98785.81
2022-12-08T14:07:14.146Z,98787.94
2022-12-08T14:10:24.897Z,98786.79
2022-12-08T14:13:29.962Z,98784.13
2022-12-08T14:16:41.379Z,98787.17
2022-12-08T14:20:13.208Z,98784.36
2022-12-08T14:23:17.633Z,98782.25
2022-12-08T14:26:20.569Z,98782.08
2022-12-08T14:29:50.146Z,98781.05
2022-12-08T14:32:56.327Z,98780.70
2022-12-08T14:35:59.573Z,98785.15
2022-12-08T14:39:02.482Z,98781.04
2022-12-08T14:42:42.051Z,98783.61
2022-12-08T14:45:44.919Z,98784.73
2022-12-08T14:48:47.766Z,98790.45
2022-12-08T14:51:50.608Z,98788.44
2022-12-08T14:54:54.552Z,98786.56
2022-12-08T14:57:57.385Z,98788.10
2022-12-08T15:01:01.136Z,98785.79
2022-12-08T15:04:12.051Z,98784.97
2022-12-08T15:07:16.449Z,98786.31
2022-12-08T15:10:27.535Z,98780.35
2022-12-08T15:13:30.307Z,98776.61
2022-12-08T15:16:36.228Z,98777.46
2022-12-08T15:19:40.306Z,98778.70
2022-12-08T15:22:43.126Z,98781.98
2022-12-08T15:25:46.228Z,98779.77
2022-12-08T15:28:49.146Z,98775.89
2022-12-08T15:31:54.312Z,98777.45
2022-12-08T15:34:57.129Z,98779.81
2022-12-08T15:38:00.033Z,98778.11
2022-12-08T15:41:02.889Z,98789.16
2022-12-08T15:44:06.351Z,98785.73
2022-12-08T15:47:18.545Z,98781.24
2022-12-08T15:50:23.941Z,98785.95
2022-12-08T15:53:31.897Z,98783.98
2022-12-08T15:56:41.226Z,98784.59
2022-12-08T15:59:58.796Z,98785.08
2022-12-08T16:03:27.604Z,98780.92
2022-12-08T16:07:12.861Z,98783.02
2022-12-08T16:09:50.030Z,98784.34
2022-12-08T16:13:56.710Z,98786.90
2022-12-08T16:17:01.387Z,98783.51
2022-12-08T16:20:07.025Z,98782.36
2022-12-08T16:23:42.359Z,98778.29
2022-12-08T16:30:18.064Z,98778.89
2022-12-08T16:33:21.406Z,98783.62
2022-12-08T16:36:24.460Z,98779.87
2022-12-08T16:39:27.767Z,98779.65
2022-12-08T16:42:46.516Z,98781.09
2022-12-08T16:45:49.629Z,98780.88
2022-12-08T16:48:52.491Z,98779.71
2022-12-08T16:51:55.383Z,98779.33
2022-12-08T16:54:58.402Z,98780.98
2022-12-08T16:58:02.895Z,98785.33
2022-12-08T17:01:10.956Z,98789.92
2022-12-08T17:07:37.134Z,98788.74
2022-12-08T17:10:41.301Z,98789.95
2022-12-08T17:13:44.090Z,98789.75
2022-12-08T17:16:47.147Z,98786.32
2022-12-08T17:19:50.121Z,98788.51
2022-12-08T17:22:59.122Z,98789.86
2022-12-08T17:26:02.708Z,98792.86
2022-12-08T17:29:05.952Z,98791.86
2022-12-08T17:32:09.033Z,98790.39
2022-12-08T17:35:13.470Z,98794.70
2022-12-08T17:38:17.903Z,98794.79
2022-12-08T17:41:20.836Z,98797.27
2022-12-08T17:44:23.769Z,98803.48
2022-12-08T17:47:26.656Z,98802.27
2022-12-08T17:50:29.605Z,98802.80
2022-12-08T17:53:37.180Z,98807.94
2022-12-08T17:56:45.386Z,98808.14
2022-12-08T17:59:48.255Z,98804.83
2022-12-08T18:02:51.255Z,98805.53
2022-12-08T18:05:54.253Z,98808.17
2022-12-08T18:08:59.018Z,98804.77
2022-12-08T18:12:01.987Z,98805.39
2022-12-08T18:15:08.735Z,98806.13
2022-12-08T18:18:11.575Z,98808.14
2022-12-08T18:21:19.899Z,98810.63
2022-12-08T18:24:26.032Z,98806.17
2022-12-08T18:27:29.041Z,98810.21
2022-12-08T18:30:31.945Z,98810.58
2022-12-08T18:33:34.783Z,98806.44
2022-12-08T18:36:37.667Z,98813.56
2022-12-08T18:39:41.110Z,98811.84
2022-12-08T18:42:44.000Z,98812.39
2022-12-08T18:45:46.871Z,98818.36
2022-12-08T18:48:54.956Z,98818.38
2022-12-08T18:51:57.830Z,98818.27
2022-12-08T18:55:08.377Z,98815.10
2022-12-08T18:58:11.391Z,98814.22
2022-12-08T19:01:14.816Z,98817.48
2022-12-08T19:04:28.402Z,98826.39
2022-12-08T19:07:31.955Z,98833.24
2022-12-08T19:10:38.187Z,98836.63
2022-12-08T19:13:40.979Z,98844.48
2022-12-08T19:17:09.843Z,98846.91
2022-12-08T19:20:13.247Z,98848.31
2022-12-08T19:23:16.310Z,98847.42
2022-12-08T19:26:19.847Z,98850.34
2022-12-08T19:29:22.868Z,98848.33
2022-12-08T19:32:26.098Z,98855.21
2022-12-08T19:35:28.944Z,98857.89
2022-12-08T19:38:51.806Z,98865.02
2022-12-08T19:42:13.030Z,98865.09
2022-12-08T19:45:21.718Z,98868.33
2022-12-08T19:48:25.029Z,98875.36
2022-12-08T19:51:30.730Z,98875.25
2022-12-08T19:54:33.954Z,98874.23
2022-12-08T19:57:36.872Z,98871.91
2022-12-08T20:00:40.654Z,98876.26
2022-12-08T20:03:43.700Z,98879.49
2022-12-08T20:06:46.897Z,98879.29
2022-12-08T20:09:49.817Z,98876.87
2022-12-08T20:13:12.596Z,98880.10
2022-12-08T20:16:16.768Z,98880.05
2022-12-08T20:19:19.907Z,98885.98
2022-12-08T20:22:22.815Z,98891.71
2022-12-08T20:25:25.637Z,98888.55
2022-12-08T20:28:28.504Z,98889.07
2022-12-08T20:31:32.662Z,98887.98
2022-12-08T20:34:35.782Z,98884.59
2022-12-08T20:37:41.510Z,98886.92
2022-12-08T20:40:46.500Z,98893.98
2022-12-08T20:43:49.929Z,98894.67
2022-12-08T20:46:52.874Z,98896.62
2022-12-08T20:49:55.723Z,98902.05
2022-12-08T20:52:58.796Z,98904.38
2022-12-08T20:56:01.674Z,98904.32
2022-12-08T20:59:04.638Z,98907.33
2022-12-08T21:02:10.844Z,98911.84
2022-12-08T21:05:14.303Z,98913.36
2022-12-08T21:08:19.609Z,98908.31
2022-12-08T21:11:22.797Z,98908.92
2022-12-08T21:14:25.833Z,98908.51
2022-12-08T21:17:29.014Z,98905.25
2022-12-08T21:20:32.122Z,98902.52
2022-12-08T21:23:35.327Z,98900.01
2022-12-08T21:26:38.566Z,98907.09
2022-12-08T21:29:41.682Z,98910.25
2022-12-08T21:32:44.686Z,98904.20
2022-12-08T21:35:47.869Z,98908.90
2022-12-08T21:38:51.297Z,98911.14
2022-12-08T21:42:12.764Z,98910.92
2022-12-08T21:45:18.065Z,98909.70
2022-12-08T21:48:21.198Z,98910.08
2022-12-08T21:51:25.178Z,98913.39
2022-12-08T21:54:28.399Z,98919.26
2022-12-08T21:57:31.644Z,98920.18
2022-12-08T22:00:35.012Z,98920.91
2022-12-08T22:03:40.078Z,98916.86
2022-12-08T22:06:43.429Z,98919.23
2022-12-08T22:09:47.865Z,98919.86
2022-12-08T22:12:50.802Z,98922.97
2022-12-08T22:16:02.703Z,98925.58
2022-12-08T22:19:05.727Z,98922.58
2022-12-08T22:22:08.735Z,98920.08
2022-12-08T22:25:12.172Z,98919.84
2022-12-08T22:28:15.271Z,98918.91
2022-12-08T22:31:21.111Z,98917.73
2022-12-08T22:34:23.970Z,98916.55
2022-12-08T22:37:26.803Z,98916.16
2022-12-08T22:40:29.597Z,98919.02
2022-12-08T22:43:32.960Z,98922.84
2022-12-08T22:46:36.078Z,98925.83
2022-12-08T22:49:38.873Z,98927.77
2022-12-08T22:52:41.728Z,98931.77
2022-12-08T22:55:45.490Z,98938.52
2022-12-08T22:58:48.490Z,98941.98
2022-12-08T23:01:51.475Z,98936.46
2022-12-08T23:04:57.667Z,98937.98
2022-12-08T23:08:01.387Z,98932.59
2022-12-08T23:11:04.323Z,98933.85
2022-12-08T23:14:07.096Z,98934.90
2022-12-08T23:17:10.138Z,98930.35
2022-12-08T23:20:13.420Z,98934.17
2022-12-08T23:23:16.226Z,98931.86
2022-12-08T23:26:24.999Z,98930.33
2022-12-08T23:29:27.898Z,98926.08
2022-12-08T23:32:30.698Z,98925.92
2022-12-08T23:35:33.642Z,98921.48
2022-12-08T23:38:36.908Z,98919.03
2022-12-08T23:41:39.748Z,98917.45
2022-12-08T23:44:42.580Z,98922.15
2022-12-08T23:47:45.584Z,98931.58
2022-12-08T23:50:48.512Z,98931.34
2022-12-08T23:53:51.382Z,98937.46
2022-12-08T23:56:54.214Z,98937.89
2022-12-08T23:59:57.052Z,98939.61
